createdAt,value
2023-05-13T00:00:50.319Z,6.78
2023-05-13T00:03:18.699Z,8.27
2023-05-13T00:05:48.662Z,6.35
2023-05-13T00:08:17.017Z,5.72
2023-05-13T00:10:45.391Z,7.43
2023-05-13T00:13:13.774Z,8.57
2023-05-13T00:15:42.376Z,7.78
2023-05-13T00:18:11.152Z,6.72
2023-05-13T00:20:39.529Z,8.70
2023-05-13T00:23:09.295Z,5.88
2023-05-13T00:25:37.672Z,6.88
2023-05-13T00:28:06.124Z,4.57
2023-05-13T00:30:34.521Z,4.50
2023-05-13T00:33:02.932Z,6.43
2023-05-13T00:35:31.324Z,7.63
2023-05-13T00:37:59.756Z,8.65
2023-05-13T00:40:29.454Z,4.95
2023-05-13T00:42:57.821Z,4.50
2023-05-13T00:45:26.145Z,9.07
2023-05-13T00:47:54.657Z,8.38
2023-05-13T00:50:23.446Z,4.38
2023-05-13T00:52:52.462Z,7.63
2023-05-13T00:55:20.899Z,6.28
2023-05-13T00:57:50.651Z,8.82
2023-05-13T01:00:27.111Z,7.38
2023-05-13T01:02:59.546Z,8.70
2023-05-13T01:05:33.287Z,5.63
2023-05-13T01:08:05.887Z,6.97
2023-05-13T01:10:38.455Z,7.85
2023-05-13T01:13:09.784Z,9.90
2023-05-13T01:15:41.841Z,8.07
2023-05-13T01:18:12.176Z,9.57
2023-05-13T01:20:43.626Z,8.63
2023-05-13T01:23:13.635Z,9.38
2023-05-13T01:25:42.381Z,10.40
2023-05-13T01:28:11.093Z,8.82
2023-05-13T01:30:39.452Z,5.55
2023-05-13T01:33:08.021Z,7.53
2023-05-13T01:35:36.601Z,5.60
2023-05-13T01:38:05.754Z,5.55
2023-05-13T01:40:35.862Z,6.63
2023-05-13T01:43:04.399Z,9.02
2023-05-13T01:45:33.245Z,6.25
2023-05-13T01:48:01.742Z,6.65
2023-05-13T01:50:30.178Z,5.80
2023-05-13T01:52:58.844Z,5.82
2023-05-13T01:55:27.273Z,6.82
2023-05-13T01:57:57.051Z,6.65
2023-05-13T02:00:25.526Z,10.73
2023-05-13T02:02:53.967Z,7.10
2023-05-13T02:05:22.545Z,7.05
2023-05-13T02:07:51.261Z,8.15
2023-05-13T02:10:19.940Z,7.00
2023-05-13T02:12:48.575Z,6.75
2023-05-13T02:15:18.353Z,6.68
2023-05-13T02:17:46.712Z,13.43
2023-05-13T02:20:16.148Z,9.18
2023-05-13T02:22:44.510Z,14.77
2023-05-13T02:25:12.940Z,9.20
2023-05-13T02:27:41.269Z,8.60
2023-05-13T02:30:10.098Z,6.60
2023-05-13T02:32:42.811Z,10.70
2023-05-13T02:35:11.774Z,15.38
2023-05-13T02:37:40.256Z,12.00
2023-05-13T02:40:09.200Z,12.43
2023-05-13T02:42:37.587Z,8.65
2023-05-13T02:45:06.225Z,7.82
2023-05-13T02:47:34.598Z,10.10
2023-05-13T02:50:06.255Z,11.48
2023-05-13T02:52:35.944Z,5.90
2023-05-13T02:55:04.433Z,8.13
2023-05-13T02:57:32.829Z,7.70
2023-05-13T03:00:01.173Z,7.55
2023-05-13T03:02:29.573Z,5.72
2023-05-13T03:04:58.248Z,8.48
2023-05-13T03:07:27.988Z,6.40
2023-05-13T03:09:56.371Z,9.20
2023-05-13T03:12:24.773Z,7.72
2023-05-13T03:14:53.153Z,6.50
2023-05-13T03:17:21.562Z,5.38
2023-05-13T03:19:49.975Z,5.13
2023-05-13T03:22:18.362Z,6.20
2023-05-13T03:24:48.085Z,8.10
2023-05-13T03:27:16.537Z,7.82
2023-05-13T03:29:44.871Z,9.43
2023-05-13T03:32:13.296Z,5.47
2023-05-13T03:34:41.719Z,8.13
2023-05-13T03:37:10.079Z,5.25
2023-05-13T03:39:38.434Z,11.00
2023-05-13T03:42:08.618Z,12.65
2023-05-13T03:44:37.046Z,13.10
2023-05-13T03:47:05.568Z,8.68
2023-05-13T03:49:33.970Z,5.72
2023-05-13T03:52:02.260Z,7.10
2023-05-13T03:54:30.679Z,7.38
2023-05-13T03:56:59.043Z,5.68
2023-05-13T03:59:28.782Z,5.45
2023-05-13T04:01:57.153Z,6.65
2023-05-13T04:04:25.638Z,14.95
2023-05-13T04:06:54.102Z,5.65
2023-05-13T04:09:22.490Z,8.30
2023-05-13T04:11:50.922Z,5.10
2023-05-13T04:14:19.327Z,4.88
2023-05-13T04:16:49.225Z,7.32
2023-05-13T04:19:17.591Z,6.57
2023-05-13T04:21:45.983Z,5.03
2023-05-13T04:24:14.362Z,5.85
2023-05-13T04:26:42.759Z,6.60
2023-05-13T04:29:11.129Z,5.60
2023-05-13T04:31:39.542Z,4.88
2023-05-13T04:34:09.336Z,6.43
2023-05-13T04:36:37.674Z,6.18
2023-05-13T04:39:06.031Z,7.95
2023-05-13T04:41:34.409Z,7.32
2023-05-13T04:44:02.797Z,6.20
2023-05-13T04:46:31.169Z,7.38
2023-05-13T04:48:59.583Z,10.20
2023-05-13T04:51:29.869Z,6.57
2023-05-13T04:53:58.753Z,8.02
2023-05-13T04:56:27.135Z,9.85
2023-05-13T04:58:55.504Z,7.05
2023-05-13T05:01:23.888Z,8.10
2023-05-13T05:03:52.313Z,13.60
2023-05-13T05:06:21.910Z,12.95
2023-05-13T05:08:51.831Z,14.98
2023-05-13T05:11:20.258Z,15.15
2023-05-13T05:13:48.666Z,13.75
2023-05-13T05:16:16.965Z,15.90
2023-05-13T05:18:45.371Z,12.63
2023-05-13T05:21:13.802Z,15.40
2023-05-13T05:23:42.395Z,16.08
2023-05-13T05:26:12.574Z,16.17
2023-05-13T05:28:41.159Z,15.70
2023-05-13T05:31:09.749Z,9.82
2023-05-13T05:33:38.333Z,14.43
2023-05-13T05:36:06.946Z,15.18
2023-05-13T05:38:35.355Z,11.95
2023-05-13T05:41:03.697Z,17.10
2023-05-13T05:43:33.516Z,18.95
2023-05-13T05:46:01.974Z,13.57
2023-05-13T05:48:32.041Z,17.52
2023-05-13T05:51:01.565Z,11.82
2023-05-13T05:53:29.918Z,17.10
2023-05-13T05:55:58.334Z,17.80
2023-05-13T05:58:27.277Z,12.90
2023-05-13T06:00:58.424Z,10.85
2023-05-13T06:03:26.886Z,8.57
2023-05-13T06:05:55.320Z,10.48
2023-05-13T06:08:29.917Z,15.55
2023-05-13T06:10:59.102Z,14.43
2023-05-13T06:13:27.565Z,16.42
2023-05-13T06:15:57.506Z,10.40
2023-05-13T06:18:25.930Z,12.32
2023-05-13T06:20:54.400Z,13.68
2023-05-13T06:23:22.758Z,14.38
2023-05-13T06:25:51.115Z,13.95
2023-05-13T06:28:19.493Z,22.52
2023-05-13T06:30:47.898Z,14.55
2023-05-13T06:33:17.664Z,14.52
2023-05-13T06:35:49.460Z,15.52
2023-05-13T06:38:18.787Z,15.98
2023-05-13T06:40:47.160Z,13.20
2023-05-13T06:43:16.512Z,14.55
2023-05-13T06:45:44.947Z,12.00
2023-05-13T06:48:13.388Z,14.82
2023-05-13T06:50:43.203Z,13.05
2023-05-13T06:53:12.625Z,15.13
2023-05-13T06:55:42.611Z,10.27
2023-05-13T06:58:11.297Z,14.10
2023-05-13T07:00:40.186Z,11.40
2023-05-13T07:03:09.046Z,12.73
2023-05-13T07:05:37.661Z,14.93
2023-05-13T07:08:08.593Z,15.25
2023-05-13T07:10:37.986Z,7.97
2023-05-13T07:13:06.570Z,13.43
2023-05-13T07:15:34.899Z,13.85
2023-05-13T07:18:03.342Z,12.98
2023-05-13T07:20:31.799Z,13.05
2023-05-13T07:23:00.179Z,11.30
2023-05-13T07:25:29.956Z,11.95
2023-05-13T07:27:58.286Z,11.50
2023-05-13T07:30:26.857Z,12.43
2023-05-13T07:32:55.305Z,14.43
2023-05-13T07:35:23.821Z,9.13
2023-05-13T07:37:52.407Z,14.85
2023-05-13T07:40:21.310Z,12.93
2023-05-13T07:42:51.680Z,11.85
2023-05-13T07:45:20.166Z,15.85
2023-05-13T07:47:48.745Z,18.67
2023-05-13T07:50:17.098Z,15.38
2023-05-13T07:52:48.996Z,12.68
2023-05-13T07:55:17.399Z,10.05
2023-05-13T07:57:45.822Z,11.07
2023-05-13T08:00:16.626Z,12.27
2023-05-13T08:02:45.387Z,14.65
2023-05-13T08:05:13.828Z,11.75
2023-05-13T08:07:42.281Z,13.27
2023-05-13T08:10:10.806Z,12.98
2023-05-13T08:12:40.396Z,10.18
2023-05-13T08:15:09.405Z,16.55
2023-05-13T08:17:39.361Z,13.35
2023-05-13T08:20:11.299Z,13.65
2023-05-13T08:22:39.680Z,15.43
2023-05-13T08:25:08.268Z,14.70
2023-05-13T08:27:36.742Z,10.55
2023-05-13T08:30:05.369Z,14.02
2023-05-13T08:32:33.787Z,12.25
2023-05-13T08:35:03.581Z,11.68
2023-05-13T08:37:31.922Z,9.32
2023-05-13T08:40:01.634Z,11.68
2023-05-13T08:42:30.623Z,11.05
2023-05-13T08:44:59.376Z,12.77
2023-05-13T08:47:32.861Z,12.85
2023-05-13T08:50:03.671Z,12.75
2023-05-13T08:52:33.384Z,10.82
2023-05-13T08:55:02.050Z,16.63
2023-05-13T08:57:30.448Z,12.23
2023-05-13T08:59:58.785Z,13.23
2023-05-13T09:02:27.728Z,13.75
2023-05-13T09:04:57.034Z,8.43
2023-05-13T09:07:26.780Z,10.38
2023-05-13T09:09:55.237Z,11.68
2023-05-13T09:12:41.963Z,13.77
2023-05-13T09:15:10.848Z,11.77
2023-05-13T09:17:39.683Z,9.75
2023-05-13T09:20:12.092Z,16.58
2023-05-13T09:22:46.754Z,11.18
2023-05-13T09:25:16.015Z,13.27
2023-05-13T09:27:45.243Z,11.02
2023-05-13T09:30:13.808Z,12.05
2023-05-13T09:32:42.757Z,6.78
2023-05-13T09:35:12.179Z,12.80
2023-05-13T09:37:40.567Z,11.75
2023-05-13T09:40:12.735Z,10.52
2023-05-13T09:42:42.780Z,12.32
2023-05-13T09:45:11.974Z,10.05
2023-05-13T09:47:40.607Z,9.52
2023-05-13T09:50:09.979Z,12.40
2023-05-13T09:52:38.971Z,9.60
2023-05-13T09:55:10.868Z,12.35
2023-05-13T09:57:40.863Z,10.88
2023-05-13T10:00:17.932Z,9.27
2023-05-13T10:02:49.854Z,13.18
2023-05-13T10:05:18.375Z,11.55
2023-05-13T10:07:46.752Z,15.90
2023-05-13T10:10:16.301Z,10.75
2023-05-13T10:12:44.646Z,8.73
2023-05-13T10:15:13.157Z,6.68
2023-05-13T10:17:42.484Z,8.70
2023-05-13T10:20:10.974Z,13.00
2023-05-13T10:22:40.059Z,12.20
2023-05-13T10:25:09.124Z,10.20
2023-05-13T10:27:40.347Z,12.90
2023-05-13T10:30:10.587Z,10.00
2023-05-13T10:32:40.264Z,7.68
2023-05-13T10:35:13.129Z,7.03
2023-05-13T10:38:00.837Z,10.75
2023-05-13T10:40:59.353Z,12.00
2023-05-13T10:43:30.667Z,10.13
2023-05-13T10:45:59.997Z,7.40
2023-05-13T10:48:28.562Z,11.20
2023-05-13T10:50:58.270Z,11.30
2023-05-13T10:53:27.527Z,7.57
2023-05-13T10:55:57.509Z,5.85
2023-05-13T10:58:32.408Z,10.05
2023-05-13T11:01:19.790Z,7.20
2023-05-13T11:03:55.152Z,8.73
2023-05-13T11:06:24.648Z,6.22
2023-05-13T11:08:55.749Z,6.68
2023-05-13T11:11:26.474Z,7.43
2023-05-13T11:13:56.879Z,8.55
2023-05-13T11:16:25.895Z,11.02
2023-05-13T11:18:54.732Z,6.68
2023-05-13T11:21:31.426Z,7.75
2023-05-13T11:24:00.272Z,5.72
2023-05-13T11:26:28.625Z,6.63
2023-05-13T11:29:05.780Z,11.60
2023-05-13T11:31:49.694Z,7.95
2023-05-13T11:34:18.902Z,4.63
2023-05-13T11:36:48.085Z,6.18
2023-05-13T11:39:17.326Z,7.78
2023-05-13T11:41:47.000Z,8.32
2023-05-13T11:44:16.114Z,8.20
2023-05-13T11:46:53.026Z,6.25
2023-05-13T11:49:34.416Z,8.07
2023-05-13T11:52:02.942Z,7.43
2023-05-13T11:54:31.437Z,2.80
2023-05-13T11:56:59.999Z,12.55
2023-05-13T11:59:35.746Z,7.13
2023-05-13T12:02:08.596Z,10.55
2023-05-13T12:04:37.314Z,9.10
2023-05-13T12:07:05.792Z,11.05
2023-05-13T12:09:34.154Z,8.57
2023-05-13T12:12:03.665Z,6.78
2023-05-13T12:14:33.301Z,6.15
2023-05-13T12:17:01.989Z,4.07
2023-05-13T12:19:31.854Z,7.97
2023-05-13T12:22:01.795Z,6.68
2023-05-13T12:24:35.107Z,9.15
2023-05-13T12:27:08.667Z,4.63
2023-05-13T12:29:42.469Z,6.07
2023-05-13T12:32:11.911Z,7.32
2023-05-13T12:34:41.680Z,8.77
2023-05-13T12:37:13.450Z,19.80
2023-05-13T12:39:42.726Z,6.38
2023-05-13T12:42:18.302Z,4.72
2023-05-13T12:44:46.865Z,5.03
2023-05-13T12:47:15.901Z,5.65
2023-05-13T12:49:55.727Z,4.53
2023-05-13T12:52:24.105Z,5.93
2023-05-13T12:54:52.471Z,7.65
2023-05-13T12:57:21.536Z,3.88
2023-05-13T12:59:49.856Z,7.30
2023-05-13T13:02:18.214Z,7.57
2023-05-13T13:04:46.554Z,10.52
2023-05-13T13:07:16.244Z,18.83
2023-05-13T13:09:44.659Z,8.55
2023-05-13T13:12:13.072Z,10.23
2023-05-13T13:14:41.797Z,5.30
2023-05-13T13:17:10.157Z,7.07
2023-05-13T13:19:38.543Z,5.88
2023-05-13T13:22:07.081Z,7.95
2023-05-13T13:24:36.989Z,6.80
2023-05-13T13:27:05.578Z,4.90
2023-05-13T13:29:33.993Z,3.97
2023-05-13T13:32:02.411Z,8.07
2023-05-13T13:34:30.826Z,5.50
2023-05-13T13:36:59.208Z,8.80
2023-05-13T13:39:27.957Z,3.75
2023-05-13T13:41:57.933Z,7.05
2023-05-13T13:44:27.448Z,7.05
2023-05-13T13:46:56.975Z,10.38
2023-05-13T13:49:25.355Z,4.07
2023-05-13T13:51:53.884Z,7.05
2023-05-13T13:54:22.445Z,4.30
2023-05-13T13:56:50.859Z,4.28
2023-05-13T13:59:20.635Z,4.82
2023-05-13T14:01:49.141Z,6.55
2023-05-13T14:04:19.863Z,17.52
2023-05-13T14:06:48.303Z,8.00
2023-05-13T14:09:16.642Z,4.82
2023-05-13T14:11:44.991Z,5.28
2023-05-13T14:14:13.552Z,4.85
2023-05-13T14:16:43.284Z,4.47
2023-05-13T14:19:12.827Z,7.07
2023-05-13T14:21:41.330Z,4.07
2023-05-13T14:24:11.987Z,6.00
2023-05-13T14:26:40.388Z,5.57
2023-05-13T14:29:08.776Z,3.67
2023-05-13T14:31:37.443Z,7.20
2023-05-13T14:34:08.136Z,4.40
2023-05-13T14:36:36.582Z,6.63
2023-05-13T14:39:04.963Z,7.07
2023-05-13T14:41:33.388Z,8.23
2023-05-13T14:44:02.108Z,6.82
2023-05-13T14:46:30.562Z,7.65
2023-05-13T14:48:58.934Z,7.85
2023-05-13T14:51:28.714Z,5.63
2023-05-13T14:53:57.044Z,9.00
2023-05-13T14:56:26.084Z,8.20
2023-05-13T14:58:54.644Z,6.60
2023-05-13T15:01:23.022Z,8.15
2023-05-13T15:03:51.368Z,4.35
2023-05-13T15:06:19.766Z,4.13
2023-05-13T15:08:49.479Z,5.10
2023-05-13T15:11:17.843Z,5.68
2023-05-13T15:13:46.181Z,4.70
2023-05-13T15:16:14.302Z,4.90
2023-05-13T15:18:42.427Z,7.03
2023-05-13T15:21:10.544Z,5.03
2023-05-13T15:23:38.640Z,6.50
2023-05-13T15:26:08.169Z,4.30
2023-05-13T15:28:36.258Z,15.65
2023-05-13T15:31:04.525Z,6.45
2023-05-13T15:33:33.148Z,6.53
2023-05-13T15:36:01.433Z,8.10
2023-05-13T15:38:29.520Z,6.22
2023-05-13T15:40:57.636Z,5.90
2023-05-13T15:43:27.130Z,10.07
2023-05-13T15:45:55.968Z,6.60
2023-05-13T15:48:24.304Z,5.80
2023-05-13T15:50:52.401Z,4.13
2023-05-13T15:53:20.801Z,7.15
2023-05-13T15:55:48.927Z,9.70
2023-05-13T15:58:16.986Z,6.47
2023-05-13T16:00:46.405Z,10.93
2023-05-13T16:03:15.280Z,9.85
2023-05-13T16:05:44.062Z,5.93
2023-05-13T16:08:12.168Z,5.80
2023-05-13T16:10:40.219Z,7.78
2023-05-13T16:13:08.512Z,6.40
2023-05-13T16:15:36.979Z,6.72
2023-05-13T16:18:07.155Z,4.35
2023-05-13T16:20:35.265Z,11.80
2023-05-13T16:23:03.385Z,7.70
2023-05-13T16:25:31.442Z,5.63
2023-05-13T16:27:59.508Z,7.28
2023-05-13T16:30:27.562Z,7.53
2023-05-13T16:32:55.784Z,5.88
2023-05-13T16:35:25.355Z,5.38
2023-05-13T16:37:53.459Z,7.75
2023-05-13T16:40:21.755Z,7.60
2023-05-13T16:42:49.924Z,8.40
2023-05-13T16:45:18.170Z,4.95
2023-05-13T16:47:46.292Z,8.32
2023-05-13T16:50:14.400Z,5.60
2023-05-13T16:52:43.864Z,7.07
2023-05-13T16:55:11.983Z,5.05
2023-05-13T16:57:40.052Z,6.47
2023-05-13T17:00:09.302Z,6.13
2023-05-13T17:02:37.525Z,6.97
2023-05-13T17:05:06.419Z,5.80
2023-05-13T17:07:34.500Z,6.03
2023-05-13T17:10:04.046Z,3.80
2023-05-13T17:12:32.423Z,4.47
2023-05-13T17:15:00.510Z,5.90
2023-05-13T17:17:28.565Z,6.00
2023-05-13T17:19:57.682Z,5.10
2023-05-13T17:22:25.822Z,3.65
2023-05-13T17:24:53.921Z,7.68
2023-05-13T17:27:23.345Z,14.05
2023-05-13T17:29:51.365Z,9.35
2023-05-13T17:32:19.450Z,9.88
2023-05-13T17:34:47.498Z,4.88
2023-05-13T17:37:15.608Z,5.78
2023-05-13T17:39:43.983Z,5.07
2023-05-13T17:42:12.036Z,6.38
2023-05-13T17:44:41.719Z,4.82
2023-05-13T17:47:09.792Z,6.10
2023-05-13T17:49:37.862Z,6.40
2023-05-13T17:52:06.906Z,5.75
2023-05-13T17:54:34.927Z,9.88
2023-05-13T17:57:03.032Z,6.63
2023-05-13T17:59:31.088Z,8.18
2023-05-13T18:02:00.605Z,6.72
2023-05-13T18:04:28.710Z,6.88
2023-05-13T18:06:56.806Z,8.15
2023-05-13T18:09:24.856Z,5.63
2023-05-13T18:11:52.918Z,6.97
2023-05-13T18:14:20.990Z,5.75
2023-05-13T18:16:49.132Z,8.95
2023-05-13T18:19:18.721Z,8.77
2023-05-13T18:21:46.806Z,8.50
2023-05-13T18:24:14.910Z,8.30
2023-05-13T18:26:43.029Z,5.70
2023-05-13T18:29:11.090Z,9.60
2023-05-13T18:31:39.208Z,3.72
2023-05-13T18:34:07.326Z,3.15
2023-05-13T18:36:36.817Z,9.88
2023-05-13T18:39:04.927Z,6.85
2023-05-13T18:41:32.976Z,6.88
2023-05-13T18:44:01.068Z,3.47
2023-05-13T18:46:29.358Z,6.13
2023-05-13T18:48:58.932Z,6.47
2023-05-13T18:51:27.120Z,6.53
2023-05-13T18:53:56.619Z,9.57
2023-05-13T18:56:24.897Z,6.13
2023-05-13T18:58:53.006Z,10.10
2023-05-13T19:01:21.492Z,8.00
2023-05-13T19:03:49.906Z,11.85
2023-05-13T19:06:18.115Z,4.93
2023-05-13T19:08:46.215Z,9.30
2023-05-13T19:11:15.634Z,7.60
2023-05-13T19:13:47.658Z,10.00
2023-05-13T19:16:16.316Z,9.32
2023-05-13T19:18:44.473Z,14.27
2023-05-13T19:21:12.613Z,9.90
2023-05-13T19:23:40.727Z,6.07
2023-05-13T19:26:09.488Z,10.25
2023-05-13T19:28:39.746Z,10.25
2023-05-13T19:31:08.246Z,7.90
2023-05-13T19:33:37.296Z,4.38
2023-05-13T19:36:05.721Z,6.90
2023-05-13T19:38:34.008Z,6.93
2023-05-13T19:41:02.130Z,7.50
2023-05-13T19:43:30.254Z,6.45
2023-05-13T19:45:59.847Z,5.63
2023-05-13T19:48:29.694Z,5.95
2023-05-13T19:50:58.510Z,7.72
2023-05-13T19:53:27.463Z,5.50
2023-05-13T19:55:56.686Z,6.35
2023-05-13T19:58:24.820Z,8.07
2023-05-13T20:00:52.958Z,5.78
2023-05-13T20:03:22.516Z,12.30
2023-05-13T20:05:51.697Z,4.85
2023-05-13T20:08:20.537Z,4.97
2023-05-13T20:10:48.602Z,4.90
2023-05-13T20:13:16.718Z,5.35
2023-05-13T20:15:45.253Z,7.75
2023-05-13T20:18:13.489Z,5.53
2023-05-13T20:20:42.942Z,7.00
2023-05-13T20:23:13.124Z,7.22
2023-05-13T20:25:42.423Z,7.05
2023-05-13T20:28:10.673Z,6.15
2023-05-13T20:30:41.647Z,4.10
2023-05-13T20:33:10.110Z,7.13
2023-05-13T20:35:38.333Z,5.35
2023-05-13T20:38:07.732Z,5.20
2023-05-13T20:40:35.838Z,7.07
2023-05-13T20:43:05.034Z,9.60
2023-05-13T20:45:36.578Z,9.57
2023-05-13T20:48:05.109Z,7.45
2023-05-13T20:50:33.506Z,6.90
2023-05-13T20:53:01.853Z,13.43
2023-05-13T20:55:31.600Z,13.52
2023-05-13T20:57:59.951Z,11.60
2023-05-13T21:00:28.343Z,14.20
2023-05-13T21:02:56.904Z,17.75
2023-05-13T21:05:25.554Z,10.32
2023-05-13T21:07:54.115Z,15.00
2023-05-13T21:10:22.796Z,10.85
2023-05-13T21:12:52.768Z,11.73
2023-05-13T21:15:21.126Z,14.23
2023-05-13T21:17:49.512Z,15.25
2023-05-13T21:20:17.933Z,12.75
2023-05-13T21:22:46.313Z,13.25
2023-05-13T21:25:15.039Z,12.70
2023-05-13T21:27:43.409Z,14.30
2023-05-13T21:30:13.808Z,16.00
2023-05-13T21:32:42.207Z,17.75
2023-05-13T21:35:10.787Z,11.68
2023-05-13T21:37:39.212Z,14.63
2023-05-13T21:40:08.814Z,18.83
2023-05-13T21:42:36.913Z,16.98
2023-05-13T21:45:05.279Z,17.55
2023-05-13T21:47:34.812Z,19.88
2023-05-13T21:50:02.989Z,22.77
2023-05-13T21:52:31.074Z,16.65
2023-05-13T21:54:59.224Z,23.35
2023-05-13T21:57:27.366Z,13.60
2023-05-13T21:59:55.604Z,23.40
2023-05-13T22:02:23.726Z,26.10
2023-05-13T22:04:53.217Z,22.42
2023-05-13T22:07:21.315Z,26.20
2023-05-13T22:09:50.459Z,20.80
2023-05-13T22:12:18.658Z,25.60
2023-05-13T22:14:46.729Z,23.33
2023-05-13T22:17:14.936Z,21.40
2023-05-13T22:19:43.090Z,29.48
2023-05-13T22:22:12.582Z,18.58
2023-05-13T22:24:40.727Z,30.75
2023-05-13T22:27:10.088Z,19.77
2023-05-13T22:29:38.160Z,26.45
2023-05-13T22:32:06.916Z,22.20
2023-05-13T22:34:35.026Z,18.98
2023-05-13T22:37:03.259Z,20.30
2023-05-13T22:39:32.694Z,23.15
2023-05-13T22:42:00.797Z,24.88
2023-05-13T22:44:28.887Z,27.48
2023-05-13T22:46:56.944Z,19.17
2023-05-13T22:49:25.142Z,26.40
2023-05-13T22:51:53.190Z,29.13
2023-05-13T22:54:21.255Z,39.35
2023-05-13T22:56:50.641Z,34.80
2023-05-13T22:59:18.725Z,37.88
2023-05-13T23:01:46.786Z,38.53
2023-05-13T23:04:14.975Z,32.30
2023-05-13T23:06:43.036Z,32.83
2023-05-13T23:09:11.091Z,26.67
2023-05-13T23:11:39.116Z,24.38
2023-05-13T23:14:09.229Z,38.40
2023-05-13T23:16:37.505Z,42.60
2023-05-13T23:19:06.136Z,30.75
2023-05-13T23:21:34.224Z,28.20
2023-05-13T23:24:02.331Z,34.42
2023-05-13T23:26:30.378Z,33.88
2023-05-13T23:28:58.423Z,28.10
2023-05-13T23:31:27.900Z,26.65
2023-05-13T23:33:55.920Z,31.15
2023-05-13T23:36:23.962Z,25.17
2023-05-13T23:38:52.011Z,33.55
2023-05-13T23:41:20.144Z,34.10
2023-05-13T23:43:48.229Z,30.17
2023-05-13T23:46:16.367Z,34.33
2023-05-13T23:48:45.757Z,30.13
2023-05-13T23:51:14.014Z,29.27
2023-05-13T23:53:42.071Z,25.25
2023-05-13T23:56:10.122Z,38.45
2023-05-13T23:58:38.135Z,36.20
